sensor_id;sensor_type;location;lat;lon;timestamp;temperature;humidity
34542;DHT22;20784;51.332;12.410;2024-01-15T00:01:13;2.20;99.90
34542;DHT22;20784;51.332;12.410;2024-01-15T00:07:03;2.40;99.90
34542;DHT22;20784;51.332;12.410;2024-01-15T00:09:39;2.20;99.90
34542;DHT22;20784;51.332;12.410;2024-01-15T00:12:28;2.20;99.90
34542;DHT22;20784;51.332;12.410;2024-01-15T00:14:54;2.20;99.90
34542;DHT22;20784;51.332;12.410;2024-01-15T00:17:24;1.90;99.90
34542;DHT22;20784;51.332;12.410;2024-01-15T00:19:55;2.20;99.90
34542;DHT22;20784;51.332;12.410;2024-01-15T00:22:42;2.10;99.90
34542;DHT22;20784;51.332;12.410;2024-01-15T00:25:11;2.10;99.90
34542;DHT22;20784;51.332;12.410;2024-01-15T00:27:42;2.10;99.90
34542;DHT22;20784;51.332;12.410;2024-01-15T00:30:29;1.80;99.90
34542;DHT22;20784;51.332;12.410;2024-01-15T00:32:55;2.20;99.90
34542;DHT22;20784;51.332;12.410;2024-01-15T00:35:27;2.00;99.90
34542;DHT22;20784;51.332;12.410;2024-01-15T00:37:56;2.00;99.90
34542;DHT22;20784;51.332;12.410;2024-01-15T00:40:51;1.90;99.90
34542;DHT22;20784;51.332;12.410;2024-01-15T00:43:16;1.80;99.90
34542;DHT22;20784;51.332;12.410;2024-01-15T00:45:45;2.00;99.90
34542;DHT22;20784;51.332;12.410;2024-01-15T00:48:11;1.90;99.90
34542;DHT22;20784;51.332;12.410;2024-01-15T00:50:36;2.00;99.90
34542;DHT22;20784;51.332;12.410;2024-01-15T00:53:14;2.30;99.90
34542;DHT22;20784;51.332;12.410;2024-01-15T00:55:48;2.00;99.90
34542;DHT22;20784;51.332;12.410;2024-01-15T00:58:35;2.10;99.90
34542;DHT22;20784;51.332;12.410;2024-01-15T01:01:01;2.10;99.90
34542;DHT22;20784;51.332;12.410;2024-01-15T01:03:46;1.90;99.90
34542;DHT22;20784;51.332;12.410;2024-01-15T01:06:18;2.50;99.90
34542;DHT22;20784;51.332;12.410;2024-01-15T01:08:43;2.20;99.90
34542;DHT22;20784;51.332;12.410;2024-01-15T01:11:13;2.00;99.90
34542;DHT22;20784;51.332;12.410;2024-01-15T01:13:42;2.00;99.90
34542;DHT22;20784;51.332;12.410;2024-01-15T01:16:28;2.00;99.90
34542;DHT22;20784;51.332;12.410;2024-01-15T01:19:01;2.20;99.90
34542;DHT22;20784;51.332;12.410;2024-01-15T01:21:43;1.90;99.90
34542;DHT22;20784;51.332;12.410;2024-01-15T01:24:12;1.90;99.90
34542;DHT22;20784;51.332;12.410;2024-01-15T01:26:43;1.70;99.90
34542;DHT22;20784;51.332;12.410;2024-01-15T01:29:17;2.40;99.90
34542;DHT22;20784;51.332;12.410;2024-01-15T01:31:47;1.90;99.90
34542;DHT22;20784;51.332;12.410;2024-01-15T01:34:29;2.00;99.90
34542;DHT22;20784;51.332;12.410;2024-01-15T01:36:57;2.00;99.90
34542;DHT22;20784;51.332;12.410;2024-01-15T01:39:28;1.80;99.90
34542;DHT22;20784;51.332;12.410;2024-01-15T01:42:20;2.40;99.90
34542;DHT22;20784;51.332;12.410;2024-01-15T01:45:12;1.90;99.90
34542;DHT22;20784;51.332;12.410;2024-01-15T01:47:40;2.10;99.90
34542;DHT22;20784;51.332;12.410;2024-01-15T01:50:07;1.80;99.90
34542;DHT22;20784;51.332;12.410;2024-01-15T01:52:36;1.80;99.90
34542;DHT22;20784;51.332;12.410;2024-01-15T01:55:09;2.20;99.90
34542;DHT22;20784;51.332;12.410;2024-01-15T01:57:45;1.80;99.90
34542;DHT22;20784;51.332;12.410;2024-01-15T02:00:22;1.70;99.90
34542;DHT22;20784;51.332;12.410;2024-01-15T02:02:57;1.80;99.90
34542;DHT22;20784;51.332;12.410;2024-01-15T02:05:36;2.00;99.90
34542;DHT22;20784;51.332;12.410;2024-01-15T02:08:05;1.80;99.90
34542;DHT22;20784;51.332;12.410;2024-01-15T02:10:36;1.80;99.90
34542;DHT22;20784;51.332;12.410;2024-01-15T02:13:07;2.00;99.90
34542;DHT22;20784;51.332;12.410;2024-01-15T02:19:05;1.80;99.90
34542;DHT22;20784;51.332;12.410;2024-01-15T02:21:34;1.60;99.90
34542;DHT22;20784;51.332;12.410;2024-01-15T02:24:03;1.70;99.90
34542;DHT22;20784;51.332;12.410;2024-01-15T02:26:42;1.70;99.90
34542;DHT22;20784;51.332;12.410;2024-01-15T02:29:11;1.90;99.90
34542;DHT22;20784;51.332;12.410;2024-01-15T02:31:38;1.60;99.90
34542;DHT22;20784;51.332;12.410;2024-01-15T02:34:11;1.70;99.90
34542;DHT22;20784;51.332;12.410;2024-01-15T02:36:37;1.60;99.90
34542;DHT22;20784;51.332;12.410;2024-01-15T02:39:03;1.60;99.90
34542;DHT22;20784;51.332;12.410;2024-01-15T02:41:31;1.60;99.90
34542;DHT22;20784;51.332;12.410;2024-01-15T02:43:56;1.60;99.90
34542;DHT22;20784;51.332;12.410;2024-01-15T02:46:22;1.60;99.90
34542;DHT22;20784;51.332;12.410;2024-01-15T02:48:48;1.60;99.90
34542;DHT22;20784;51.332;12.410;2024-01-15T02:51:19;1.60;99.90
34542;DHT22;20784;51.332;12.410;2024-01-15T02:53:45;1.60;99.90
34542;DHT22;20784;51.332;12.410;2024-01-15T02:56:10;1.50;99.90
34542;DHT22;20784;51.332;12.410;2024-01-15T02:58:36;1.60;99.90
34542;DHT22;20784;51.332;12.410;2024-01-15T03:01:02;1.70;99.90
34542;DHT22;20784;51.332;12.410;2024-01-15T03:03:28;1.70;99.90
34542;DHT22;20784;51.332;12.410;2024-01-15T03:05:57;1.70;99.90
34542;DHT22;20784;51.332;12.410;2024-01-15T03:08:23;1.70;99.90
34542;DHT22;20784;51.332;12.410;2024-01-15T03:10:56;1.60;99.90
34542;DHT22;20784;51.332;12.410;2024-01-15T03:13:24;1.60;99.90
34542;DHT22;20784;51.332;12.410;2024-01-15T03:15:50;1.60;99.90
34542;DHT22;20784;51.332;12.410;2024-01-15T03:18:16;1.60;99.90
34542;DHT22;20784;51.332;12.410;2024-01-15T03:20:42;1.80;99.90
34542;DHT22;20784;51.332;12.410;2024-01-15T03:23:08;1.60;99.90
34542;DHT22;20784;51.332;12.410;2024-01-15T03:25:33;1.60;99.90
34542;DHT22;20784;51.332;12.410;2024-01-15T03:28:00;1.80;99.90
34542;DHT22;20784;51.332;12.410;2024-01-15T03:30:27;1.50;99.90
34542;DHT22;20784;51.332;12.410;2024-01-15T03:32:54;1.50;99.90
34542;DHT22;20784;51.332;12.410;2024-01-15T03:35:22;1.30;99.90
34542;DHT22;20784;51.332;12.410;2024-01-15T03:38:02;1.50;99.90
34542;DHT22;20784;51.332;12.410;2024-01-15T03:40:33;1.30;99.90
34542;DHT22;20784;51.332;12.410;2024-01-15T03:43:04;1.40;99.90
34542;DHT22;20784;51.332;12.410;2024-01-15T03:45:32;1.40;99.90
34542;DHT22;20784;51.332;12.410;2024-01-15T03:47:57;1.40;99.90
34542;DHT22;20784;51.332;12.410;2024-01-15T03:50:23;1.40;99.90
34542;DHT22;20784;51.332;12.410;2024-01-15T03:52:50;1.40;99.90
34542;DHT22;20784;51.332;12.410;2024-01-15T03:55:23;1.30;99.90
34542;DHT22;20784;51.332;12.410;2024-01-15T03:58:12;1.30;99.90
34542;DHT22;20784;51.332;12.410;2024-01-15T04:00:37;1.30;99.90
34542;DHT22;20784;51.332;12.410;2024-01-15T04:03:23;1.20;99.90
34542;DHT22;20784;51.332;12.410;2024-01-15T04:05:49;1.50;99.90
34542;DHT22;20784;51.332;12.410;2024-01-15T04:08:15;1.30;99.90
34542;DHT22;20784;51.332;12.410;2024-01-15T04:10:43;1.40;99.90
34542;DHT22;20784;51.332;12.410;2024-01-15T04:13:09;1.40;99.90
34542;DHT22;20784;51.332;12.410;2024-01-15T04:15:35;1.40;99.90
34542;DHT22;20784;51.332;12.410;2024-01-15T04:18:02;1.40;99.90
34542;DHT22;20784;51.332;12.410;2024-01-15T04:20:28;1.50;99.90
34542;DHT22;20784;51.332;12.410;2024-01-15T04:22:54;1.20;99.90
34542;DHT22;20784;51.332;12.410;2024-01-15T04:25:20;1.60;99.90
34542;DHT22;20784;51.332;12.410;2024-01-15T04:27:57;1.50;99.90
34542;DHT22;20784;51.332;12.410;2024-01-15T04:30:53;1.50;99.90
34542;DHT22;20784;51.332;12.410;2024-01-15T04:33:31;1.50;99.90
34542;DHT22;20784;51.332;12.410;2024-01-15T04:36:43;1.50;99.90
34542;DHT22;20784;51.332;12.410;2024-01-15T04:39:11;1.50;99.90
34542;DHT22;20784;51.332;12.410;2024-01-15T04:41:42;1.40;99.90
34542;DHT22;20784;51.332;12.410;2024-01-15T04:44:30;1.30;99.90
34542;DHT22;20784;51.332;12.410;2024-01-15T04:47:16;1.30;99.90
34542;DHT22;20784;51.332;12.410;2024-01-15T04:49:42;1.30;99.90
34542;DHT22;20784;51.332;12.410;2024-01-15T04:52:17;1.20;99.90
34542;DHT22;20784;51.332;12.410;2024-01-15T04:54:45;1.20;99.90
34542;DHT22;20784;51.332;12.410;2024-01-15T04:57:17;1.10;99.90
34542;DHT22;20784;51.332;12.410;2024-01-15T04:59:46;1.40;99.90
34542;DHT22;20784;51.332;12.410;2024-01-15T05:02:25;1.30;99.90
34542;DHT22;20784;51.332;12.410;2024-01-15T05:04:55;1.30;99.90
34542;DHT22;20784;51.332;12.410;2024-01-15T05:07:32;1.50;99.90
34542;DHT22;20784;51.332;12.410;2024-01-15T05:10:00;2.30;99.90
34542;DHT22;20784;51.332;12.410;2024-01-15T05:12:32;1.40;99.90
34542;DHT22;20784;51.332;12.410;2024-01-15T05:15:02;1.40;99.90
34542;DHT22;20784;51.332;12.410;2024-01-15T05:17:30;1.50;99.90
34542;DHT22;20784;51.332;12.410;2024-01-15T05:20:04;1.50;99.90
34542;DHT22;20784;51.332;12.410;2024-01-15T05:22:30;1.40;99.90
34542;DHT22;20784;51.332;12.410;2024-01-15T05:24:59;1.60;99.90
34542;DHT22;20784;51.332;12.410;2024-01-15T05:27:25;2.30;99.90
34542;DHT22;20784;51.332;12.410;2024-01-15T05:30:00;1.50;99.90
34542;DHT22;20784;51.332;12.410;2024-01-15T05:32:34;1.50;99.90
34542;DHT22;20784;51.332;12.410;2024-01-15T05:35:04;1.50;99.90
34542;DHT22;20784;51.332;12.410;2024-01-15T05:37:30;1.30;99.90
34542;DHT22;20784;51.332;12.410;2024-01-15T05:39:59;1.40;99.90
34542;DHT22;20784;51.332;12.410;2024-01-15T05:42:25;1.40;99.90
34542;DHT22;20784;51.332;12.410;2024-01-15T05:44:57;1.60;99.90
34542;DHT22;20784;51.332;12.410;2024-01-15T05:47:40;1.40;99.90
34542;DHT22;20784;51.332;12.410;2024-01-15T05:50:10;1.60;99.90
34542;DHT22;20784;51.332;12.410;2024-01-15T05:53:14;1.50;99.90
34542;DHT22;20784;51.332;12.410;2024-01-15T05:55:42;1.40;99.90
34542;DHT22;20784;51.332;12.410;2024-01-15T05:58:08;1.50;99.90
34542;DHT22;20784;51.332;12.410;2024-01-15T06:00:45;1.50;99.90
34542;DHT22;20784;51.332;12.410;2024-01-15T06:03:12;1.40;99.90
34542;DHT22;20784;51.332;12.410;2024-01-15T06:05:49;1.40;99.90
34542;DHT22;20784;51.332;12.410;2024-01-15T06:08:15;1.40;99.90
34542;DHT22;20784;51.332;12.410;2024-01-15T06:10:41;1.70;99.90
34542;DHT22;20784;51.332;12.410;2024-01-15T06:13:13;1.40;99.90
34542;DHT22;20784;51.332;12.410;2024-01-15T06:15:41;1.50;99.90
34542;DHT22;20784;51.332;12.410;2024-01-15T06:18:07;1.60;99.90
34542;DHT22;20784;51.332;12.410;2024-01-15T06:20:33;1.50;99.90
34542;DHT22;20784;51.332;12.410;2024-01-15T06:23:08;1.50;99.90
34542;DHT22;20784;51.332;12.410;2024-01-15T06:25:56;1.70;99.90
34542;DHT22;20784;51.332;12.410;2024-01-15T06:28:45;1.60;99.90
34542;DHT22;20784;51.332;12.410;2024-01-15T06:31:10;1.90;99.90
34542;DHT22;20784;51.332;12.410;2024-01-15T06:34:06;1.60;99.90
34542;DHT22;20784;51.332;12.410;2024-01-15T06:36:53;1.40;99.90
34542;DHT22;20784;51.332;12.410;2024-01-15T06:39:37;1.60;99.90
34542;DHT22;20784;51.332;12.410;2024-01-15T06:42:02;1.60;99.90
34542;DHT22;20784;51.332;12.410;2024-01-15T06:44:31;1.60;99.90
34542;DHT22;20784;51.332;12.410;2024-01-15T06:47:02;1.60;99.90
34542;DHT22;20784;51.332;12.410;2024-01-15T06:49:51;1.90;99.90
34542;DHT22;20784;51.332;12.410;2024-01-15T06:52:17;1.70;99.90
34542;DHT22;20784;51.332;12.410;2024-01-15T06:54:49;1.80;99.90
34542;DHT22;20784;51.332;12.410;2024-01-15T06:57:15;1.80;99.90
34542;DHT22;20784;51.332;12.410;2024-01-15T06:59:51;1.90;99.90
34542;DHT22;20784;51.332;12.410;2024-01-15T07:02:33;1.60;99.90
34542;DHT22;20784;51.332;12.410;2024-01-15T07:05:05;1.60;99.90
34542;DHT22;20784;51.332;12.410;2024-01-15T07:07:31;1.60;99.90
34542;DHT22;20784;51.332;12.410;2024-01-15T07:10:06;1.60;99.90
34542;DHT22;20784;51.332;12.410;2024-01-15T07:12:32;1.60;99.90
34542;DHT22;20784;51.332;12.410;2024-01-15T07:15:11;1.70;99.90
34542;DHT22;20784;51.332;12.410;2024-01-15T07:17:40;1.60;99.90
34542;DHT22;20784;51.332;12.410;2024-01-15T07:20:15;1.70;99.90
34542;DHT22;20784;51.332;12.410;2024-01-15T07:22:54;1.60;99.90
34542;DHT22;20784;51.332;12.410;2024-01-15T07:25:23;1.60;99.90
34542;DHT22;20784;51.332;12.410;2024-01-15T07:27:51;1.60;99.90
34542;DHT22;20784;51.332;12.410;2024-01-15T07:30:16;1.70;99.90
34542;DHT22;20784;51.332;12.410;2024-01-15T07:32:42;1.60;99.90
34542;DHT22;20784;51.332;12.410;2024-01-15T07:35:08;1.60;99.90
34542;DHT22;20784;51.332;12.410;2024-01-15T07:37:33;1.60;99.90
34542;DHT22;20784;51.332;12.410;2024-01-15T07:39:59;1.70;99.90
34542;DHT22;20784;51.332;12.410;2024-01-15T07:42:25;1.70;99.90
34542;DHT22;20784;51.332;12.410;2024-01-15T07:44:54;2.10;99.90
34542;DHT22;20784;51.332;12.410;2024-01-15T07:47:41;2.20;99.90
34542;DHT22;20784;51.332;12.410;2024-01-15T07:50:28;1.10;99.90
34542;DHT22;20784;51.332;12.410;2024-01-15T07:53:33;1.70;99.90
34542;DHT22;20784;51.332;12.410;2024-01-15T07:55:58;1.70;99.90
34542;DHT22;20784;51.332;12.410;2024-01-15T07:58:24;1.20;99.90
34542;DHT22;20784;51.332;12.410;2024-01-15T08:00:50;1.60;99.90
34542;DHT22;20784;51.332;12.410;2024-01-15T08:03:19;1.60;99.90
34542;DHT22;20784;51.332;12.410;2024-01-15T08:05:45;2.10;99.90
34542;DHT22;20784;51.332;12.410;2024-01-15T08:08:16;2.60;99.90
34542;DHT22;20784;51.332;12.410;2024-01-15T08:11:11;1.70;99.90
34542;DHT22;20784;51.332;12.410;2024-01-15T08:13:39;1.80;99.90
34542;DHT22;20784;51.332;12.410;2024-01-15T08:16:08;2.00;99.90
34542;DHT22;20784;51.332;12.410;2024-01-15T08:18:44;2.00;99.90
34542;DHT22;20784;51.332;12.410;2024-01-15T08:21:18;1.80;99.90
34542;DHT22;20784;51.332;12.410;2024-01-15T08:23:50;2.10;99.90
34542;DHT22;20784;51.332;12.410;2024-01-15T08:27:11;2.00;99.90
34542;DHT22;20784;51.332;12.410;2024-01-15T08:29:40;2.30;99.90
34542;DHT22;20784;51.332;12.410;2024-01-15T08:32:12;2.60;99.90
34542;DHT22;20784;51.332;12.410;2024-01-15T08:34:41;2.10;99.90
34542;DHT22;20784;51.332;12.410;2024-01-15T08:37:12;2.10;99.90
34542;DHT22;20784;51.332;12.410;2024-01-15T08:39:37;2.20;99.90
34542;DHT22;20784;51.332;12.410;2024-01-15T08:42:08;2.50;99.90
34542;DHT22;20784;51.332;12.410;2024-01-15T08:44:37;2.10;99.90
34542;DHT22;20784;51.332;12.410;2024-01-15T08:47:24;2.30;99.90
34542;DHT22;20784;51.332;12.410;2024-01-15T08:50:02;2.40;99.90
34542;DHT22;20784;51.332;12.410;2024-01-15T08:52:31;2.40;99.90
34542;DHT22;20784;51.332;12.410;2024-01-15T08:55:02;2.10;99.90
34542;DHT22;20784;51.332;12.410;2024-01-15T08:57:30;2.40;99.90
34542;DHT22;20784;51.332;12.410;2024-01-15T09:00:00;2.40;99.90
34542;DHT22;20784;51.332;12.410;2024-01-15T09:02:26;2.80;99.90
34542;DHT22;20784;51.332;12.410;2024-01-15T09:05:11;4.00;99.90
34542;DHT22;20784;51.332;12.410;2024-01-15T09:08:13;5.10;99.90
34542;DHT22;20784;51.332;12.410;2024-01-15T09:10:41;5.60;99.90
34542;DHT22;20784;51.332;12.410;2024-01-15T09:13:07;5.20;99.90
34542;DHT22;20784;51.332;12.410;2024-01-15T09:15:33;4.30;99.90
34542;DHT22;20784;51.332;12.410;2024-01-15T09:17:59;4.10;99.90
34542;DHT22;20784;51.332;12.410;2024-01-15T09:20:30;3.80;99.90
34542;DHT22;20784;51.332;12.410;2024-01-15T09:22:56;3.50;99.90
34542;DHT22;20784;51.332;12.410;2024-01-15T09:25:22;3.60;99.90
34542;DHT22;20784;51.332;12.410;2024-01-15T09:27:47;3.30;99.90
34542;DHT22;20784;51.332;12.410;2024-01-15T09:30:21;3.00;99.90
34542;DHT22;20784;51.332;12.410;2024-01-15T09:32:50;2.80;99.90
34542;DHT22;20784;51.332;12.410;2024-01-15T09:35:21;2.70;99.90
34542;DHT22;20784;51.332;12.410;2024-01-15T09:37:58;2.70;99.90
34542;DHT22;20784;51.332;12.410;2024-01-15T09:40:26;2.80;99.90
34542;DHT22;20784;51.332;12.410;2024-01-15T09:43:06;3.00;99.90
34542;DHT22;20784;51.332;12.410;2024-01-15T09:45:37;3.10;99.90
34542;DHT22;20784;51.332;12.410;2024-01-15T09:48:03;3.10;99.90
34542;DHT22;20784;51.332;12.410;2024-01-15T09:50:28;3.10;99.90
34542;DHT22;20784;51.332;12.410;2024-01-15T09:52:57;3.10;99.90
34542;DHT22;20784;51.332;12.410;2024-01-15T09:55:29;3.40;99.90
34542;DHT22;20784;51.332;12.410;2024-01-15T09:57:59;3.70;99.90
34542;DHT22;20784;51.332;12.410;2024-01-15T10:00:28;5.00;99.90
34542;DHT22;20784;51.332;12.410;2024-01-15T10:02:56;5.30;99.90
34542;DHT22;20784;51.332;12.410;2024-01-15T10:05:24;4.40;99.90
34542;DHT22;20784;51.332;12.410;2024-01-15T10:07:54;4.00;99.90
34542;DHT22;20784;51.332;12.410;2024-01-15T10:10:20;4.30;99.90
34542;DHT22;20784;51.332;12.410;2024-01-15T10:12:47;3.50;99.90
34542;DHT22;20784;51.332;12.410;2024-01-15T10:15:16;3.30;99.90
34542;DHT22;20784;51.332;12.410;2024-01-15T10:17:42;3.40;99.90
34542;DHT22;20784;51.332;12.410;2024-01-15T10:20:10;3.10;99.90
34542;DHT22;20784;51.332;12.410;2024-01-15T10:22:38;3.00;99.90
34542;DHT22;20784;51.332;12.410;2024-01-15T10:25:10;3.10;99.90
34542;DHT22;20784;51.332;12.410;2024-01-15T10:27:39;3.20;99.90
34542;DHT22;20784;51.332;12.410;2024-01-15T10:30:06;3.10;99.90
34542;DHT22;20784;51.332;12.410;2024-01-15T10:32:32;2.90;99.90
34542;DHT22;20784;51.332;12.410;2024-01-15T10:34:58;2.80;99.90
34542;DHT22;20784;51.332;12.410;2024-01-15T10:37:24;2.90;99.90
34542;DHT22;20784;51.332;12.410;2024-01-15T10:39:50;2.90;99.90
34542;DHT22;20784;51.332;12.410;2024-01-15T10:42:16;2.90;99.90
34542;DHT22;20784;51.332;12.410;2024-01-15T10:44:43;2.80;99.90
34542;DHT22;20784;51.332;12.410;2024-01-15T10:47:09;2.50;99.90
34542;DHT22;20784;51.332;12.410;2024-01-15T10:49:36;2.90;99.90
34542;DHT22;20784;51.332;12.410;2024-01-15T10:52:02;3.20;99.90
34542;DHT22;20784;51.332;12.410;2024-01-15T10:54:29;2.90;99.90
34542;DHT22;20784;51.332;12.410;2024-01-15T10:57:00;2.80;99.90
34542;DHT22;20784;51.332;12.410;2024-01-15T10:59:30;2.70;99.90
34542;DHT22;20784;51.332;12.410;2024-01-15T11:01:56;2.80;99.90
34542;DHT22;20784;51.332;12.410;2024-01-15T11:04:38;2.80;99.90
34542;DHT22;20784;51.332;12.410;2024-01-15T11:07:05;3.00;99.90
34542;DHT22;20784;51.332;12.410;2024-01-15T11:09:40;2.90;99.90
34542;DHT22;20784;51.332;12.410;2024-01-15T11:12:10;2.80;99.90
34542;DHT22;20784;51.332;12.410;2024-01-15T11:14:51;2.90;99.90
34542;DHT22;20784;51.332;12.410;2024-01-15T11:17:28;3.00;99.90
34542;DHT22;20784;51.332;12.410;2024-01-15T11:20:19;3.00;99.90
34542;DHT22;20784;51.332;12.410;2024-01-15T11:22:53;3.10;99.90
34542;DHT22;20784;51.332;12.410;2024-01-15T11:25:21;3.10;99.90
34542;DHT22;20784;51.332;12.410;2024-01-15T11:27:50;3.40;99.90
34542;DHT22;20784;51.332;12.410;2024-01-15T11:30:26;3.20;99.90
34542;DHT22;20784;51.332;12.410;2024-01-15T11:33:35;3.10;99.90
34542;DHT22;20784;51.332;12.410;2024-01-15T11:36:09;3.10;99.90
34542;DHT22;20784;51.332;12.410;2024-01-15T11:38:46;3.10;99.90
34542;DHT22;20784;51.332;12.410;2024-01-15T11:41:31;3.20;99.90
34542;DHT22;20784;51.332;12.410;2024-01-15T11:44:02;3.30;99.90
34542;DHT22;20784;51.332;12.410;2024-01-15T11:46:33;3.20;99.90
34542;DHT22;20784;51.332;12.410;2024-01-15T11:52:07;3.60;99.90
34542;DHT22;20784;51.332;12.410;2024-01-15T11:54:38;3.20;99.90
34542;DHT22;20784;51.332;12.410;2024-01-15T11:57:12;3.30;99.90
34542;DHT22;20784;51.332;12.410;2024-01-15T11:59:41;3.10;99.90
34542;DHT22;20784;51.332;12.410;2024-01-15T12:02:07;3.10;99.90
34542;DHT22;20784;51.332;12.410;2024-01-15T12:04:33;3.30;99.90
34542;DHT22;20784;51.332;12.410;2024-01-15T12:07:08;3.20;99.90
34542;DHT22;20784;51.332;12.410;2024-01-15T12:09:33;3.20;99.90
34542;DHT22;20784;51.332;12.410;2024-01-15T12:12:06;3.20;99.90
34542;DHT22;20784;51.332;12.410;2024-01-15T12:14:36;3.90;99.90
34542;DHT22;20784;51.332;12.410;2024-01-15T12:17:03;3.20;99.90
34542;DHT22;20784;51.332;12.410;2024-01-15T12:19:29;3.30;99.90
34542;DHT22;20784;51.332;12.410;2024-01-15T12:21:57;3.20;99.90
34542;DHT22;20784;51.332;12.410;2024-01-15T12:24:25;3.30;99.90
34542;DHT22;20784;51.332;12.410;2024-01-15T12:26:51;3.30;99.90
34542;DHT22;20784;51.332;12.410;2024-01-15T12:29:18;3.30;99.90
34542;DHT22;20784;51.332;12.410;2024-01-15T12:31:51;3.30;99.90
34542;DHT22;20784;51.332;12.410;2024-01-15T12:34:17;3.30;99.90
34542;DHT22;20784;51.332;12.410;2024-01-15T12:36:43;3.30;99.90
34542;DHT22;20784;51.332;12.410;2024-01-15T12:39:12;3.30;99.90
34542;DHT22;20784;51.332;12.410;2024-01-15T12:41:38;3.50;99.90
34542;DHT22;20784;51.332;12.410;2024-01-15T12:44:08;3.60;99.90
34542;DHT22;20784;51.332;12.410;2024-01-15T12:46:41;3.30;99.90
34542;DHT22;20784;51.332;12.410;2024-01-15T12:49:08;3.30;99.90
34542;DHT22;20784;51.332;12.410;2024-01-15T12:51:56;3.30;99.90
34542;DHT22;20784;51.332;12.410;2024-01-15T12:54:25;3.40;99.90
34542;DHT22;20784;51.332;12.410;2024-01-15T12:56:57;3.40;99.90
34542;DHT22;20784;51.332;12.410;2024-01-15T12:59:25;3.40;99.90
34542;DHT22;20784;51.332;12.410;2024-01-15T13:01:56;3.40;99.90
34542;DHT22;20784;51.332;12.410;2024-01-15T13:04:27;3.50;99.90
34542;DHT22;20784;51.332;12.410;2024-01-15T13:06:55;3.60;99.90
34542;DHT22;20784;51.332;12.410;2024-01-15T13:09:30;3.30;99.90
34542;DHT22;20784;51.332;12.410;2024-01-15T13:11:57;3.30;99.90
34542;DHT22;20784;51.332;12.410;2024-01-15T13:14:37;3.10;99.90
34542;DHT22;20784;51.332;12.410;2024-01-15T13:17:13;3.10;99.90
34542;DHT22;20784;51.332;12.410;2024-01-15T13:19:55;3.30;99.90
34542;DHT22;20784;51.332;12.410;2024-01-15T13:22:43;3.20;99.90
34542;DHT22;20784;51.332;12.410;2024-01-15T13:25:15;3.30;99.90
34542;DHT22;20784;51.332;12.410;2024-01-15T13:27:46;3.00;99.90
34542;DHT22;20784;51.332;12.410;2024-01-15T13:30:15;3.20;99.90
34542;DHT22;20784;51.332;12.410;2024-01-15T13:32:44;3.20;99.90
34542;DHT22;20784;51.332;12.410;2024-01-15T13:35:09;3.20;99.90
34542;DHT22;20784;51.332;12.410;2024-01-15T13:37:38;3.30;99.90
34542;DHT22;20784;51.332;12.410;2024-01-15T13:40:07;3.30;99.90
34542;DHT22;20784;51.332;12.410;2024-01-15T13:42:44;3.30;99.90
34542;DHT22;20784;51.332;12.410;2024-01-15T13:45:10;3.30;99.90
34542;DHT22;20784;51.332;12.410;2024-01-15T13:47:35;3.30;99.90
34542;DHT22;20784;51.332;12.410;2024-01-15T13:50:03;3.30;99.90
34542;DHT22;20784;51.332;12.410;2024-01-15T13:52:36;3.20;99.90
34542;DHT22;20784;51.332;12.410;2024-01-15T13:55:22;3.40;99.90
34542;DHT22;20784;51.332;12.410;2024-01-15T13:57:52;4.00;99.90
34542;DHT22;20784;51.332;12.410;2024-01-15T14:00:28;3.30;99.90
34542;DHT22;20784;51.332;12.410;2024-01-15T14:03:03;3.50;99.90
34542;DHT22;20784;51.332;12.410;2024-01-15T14:05:32;3.40;99.90
34542;DHT22;20784;51.332;12.410;2024-01-15T14:08:01;3.30;99.90
34542;DHT22;20784;51.332;12.410;2024-01-15T14:10:31;3.30;99.90
34542;DHT22;20784;51.332;12.410;2024-01-15T14:13:00;3.30;99.90
34542;DHT22;20784;51.332;12.410;2024-01-15T14:15:26;3.30;99.90
34542;DHT22;20784;51.332;12.410;2024-01-15T14:17:54;3.40;99.90
34542;DHT22;20784;51.332;12.410;2024-01-15T14:20:19;3.30;99.90
34542;DHT22;20784;51.332;12.410;2024-01-15T14:22:45;3.50;99.90
34542;DHT22;20784;51.332;12.410;2024-01-15T14:25:17;3.30;99.90
34542;DHT22;20784;51.332;12.410;2024-01-15T14:27:42;3.30;99.90
34542;DHT22;20784;51.332;12.410;2024-01-15T14:30:08;3.30;99.90
34542;DHT22;20784;51.332;12.410;2024-01-15T14:32:34;3.30;99.90
34542;DHT22;20784;51.332;12.410;2024-01-15T14:35:03;3.40;99.90
34542;DHT22;20784;51.332;12.410;2024-01-15T14:37:30;3.30;99.90
34542;DHT22;20784;51.332;12.410;2024-01-15T14:39:59;3.20;99.90
34542;DHT22;20784;51.332;12.410;2024-01-15T14:42:33;3.10;99.90
34542;DHT22;20784;51.332;12.410;2024-01-15T14:45:11;3.30;99.90
34542;DHT22;20784;51.332;12.410;2024-01-15T14:47:41;3.10;99.90
34542;DHT22;20784;51.332;12.410;2024-01-15T14:50:08;3.10;99.90
34542;DHT22;20784;51.332;12.410;2024-01-15T14:52:36;3.10;99.90
34542;DHT22;20784;51.332;12.410;2024-01-15T14:55:02;3.10;99.90
34542;DHT22;20784;51.332;12.410;2024-01-15T14:57:31;3.10;99.90
34542;DHT22;20784;51.332;12.410;2024-01-15T14:59:56;3.00;99.90
34542;DHT22;20784;51.332;12.410;2024-01-15T15:02:23;3.10;99.90
34542;DHT22;20784;51.332;12.410;2024-01-15T15:04:51;3.10;99.90
34542;DHT22;20784;51.332;12.410;2024-01-15T15:07:21;3.00;99.90
34542;DHT22;20784;51.332;12.410;2024-01-15T15:09:54;3.10;99.90
34542;DHT22;20784;51.332;12.410;2024-01-15T15:12:26;3.10;99.90
34542;DHT22;20784;51.332;12.410;2024-01-15T15:14:53;3.00;99.90
34542;DHT22;20784;51.332;12.410;2024-01-15T15:17:21;3.20;99.90
34542;DHT22;20784;51.332;12.410;2024-01-15T15:19:50;3.50;99.90
34542;DHT22;20784;51.332;12.410;2024-01-15T15:22:28;2.70;99.90
34542;DHT22;20784;51.332;12.410;2024-01-15T15:25:28;2.70;99.90
34542;DHT22;20784;51.332;12.410;2024-01-15T15:28:12;3.00;99.90
34542;DHT22;20784;51.332;12.410;2024-01-15T15:30:50;2.90;99.90
34542;DHT22;20784;51.332;12.410;2024-01-15T15:36:17;2.20;99.90
34542;DHT22;20784;51.332;12.410;2024-01-15T15:38:53;2.90;99.90
34542;DHT22;20784;51.332;12.410;2024-01-15T15:41:42;3.00;99.90
34542;DHT22;20784;51.332;12.410;2024-01-15T15:44:34;2.90;99.90
34542;DHT22;20784;51.332;12.410;2024-01-15T15:47:20;3.10;99.90
34542;DHT22;20784;51.332;12.410;2024-01-15T15:49:52;2.80;99.90
34542;DHT22;20784;51.332;12.410;2024-01-15T15:55:59;2.70;99.90
34542;DHT22;20784;51.332;12.410;2024-01-15T16:01:52;2.60;99.90
34542;DHT22;20784;51.332;12.410;2024-01-15T16:04:41;2.80;99.90
34542;DHT22;20784;51.332;12.410;2024-01-15T16:07:25;2.70;99.90
34542;DHT22;20784;51.332;12.410;2024-01-15T16:10:08;2.60;99.90
34542;DHT22;20784;51.332;12.410;2024-01-15T16:12:39;2.80;99.90
34542;DHT22;20784;51.332;12.410;2024-01-15T16:15:18;2.50;99.90
34542;DHT22;20784;51.332;12.410;2024-01-15T16:18:06;2.60;99.90
34542;DHT22;20784;51.332;12.410;2024-01-15T16:20:46;2.50;99.90